Time;durP1;ratioP1;P1;durP2;ratioP2;P2;SDS_P1;SDS_P2;PMS_P1;PMS_P2;Temp;Humidity;BMP_temperature;BMP_pressure;BME280_temperature;BME280_humidity;BME280_pressure;Samples;Min_cycle;Max_cycle;Signal;HPM_P1;HPM_P2
2021/09/10 00:04:07;;;;;;;20.02;12.68;;;;;18.70;100628.00;;;;12898315;22;20727;-82
2021/09/10 00:09:08;;;;;;;18.85;13.13;;;;;18.80;100629.00;;;;12873981;22;20198;-82
2021/09/10 00:14:10;;;;;;;15.93;12.15;;;;;18.80;100628.00;;;;12899499;22;20604;-82
2021/09/10 00:19:11;;;;;;;16.63;11.35;;;;;18.80;100628.00;;;;12873400;22;20193;-82
2021/09/10 00:24:13;;;;;;;17.08;12.40;;;;;18.80;100622.00;;;;12872443;22;20169;-83
2021/09/10 00:29:22;;;;;;;16.30;11.60;;;;;18.80;100633.00;;;;12898718;22;20193;-82
2021/09/10 00:34:23;;;;;;;15.68;10.98;;;;;18.80;100627.00;;;;12848909;22;20472;-82
2021/09/10 00:39:24;;;;;;;15.00;11.25;;;;;18.90;100621.00;;;;12923330;22;20185;-82
2021/09/10 00:44:25;;;;;;;12.15;9.82;;;;;18.90;100628.00;;;;12898531;22;20192;-82
2021/09/10 00:49:26;;;;;;;11.15;9.27;;;;;18.90;100635.00;;;;12898622;23;20221;-82
2021/09/10 00:54:27;;;;;;;18.25;10.07;;;;;18.80;100632.00;;;;12873209;22;20200;-81
2021/09/10 00:59:29;;;;;;;11.55;9.45;;;;;18.80;100626.00;;;;12875247;22;20269;-82
2021/09/10 01:04:30;;;;;;;13.05;9.38;;;;;18.80;100637.00;;;;12865307;22;20173;-79
2021/09/10 01:09:32;;;;;;;13.45;9.45;;;;;18.70;100639.00;;;;12889596;22;20197;-79
2021/09/10 01:14:34;;;;;;;11.85;8.45;;;;;18.70;100643.00;;;;12889764;22;20177;-79
2021/09/10 01:19:36;;;;;;;15.63;8.88;;;;;18.70;100636.00;;;;12935725;22;20189;-79
2021/09/10 01:24:40;;;;;;;12.93;9.07;;;;;18.70;100631.00;;;;12839094;22;20173;-79
2021/09/10 01:29:41;;;;;;;9.57;8.52;;;;;18.70;100633.00;;;;12865280;23;20235;-80
2021/09/10 01:34:42;;;;;;;13.30;9.15;;;;;18.70;100628.00;;;;12889947;22;20183;-79
2021/09/10 01:39:43;;;;;;;10.20;9.20;;;;;18.80;100645.00;;;;12889057;22;20177;-80
2021/09/10 01:44:44;;;;;;;12.23;8.93;;;;;18.80;100640.00;;;;12864017;22;20323;-80
2021/09/10 01:49:45;;;;;;;11.75;8.98;;;;;18.80;100641.00;;;;12888858;22;20197;-79
2021/09/10 01:54:47;;;;;;;12.18;8.63;;;;;18.70;100635.00;;;;12889227;22;20223;-80
2021/09/10 01:59:48;;;;;;;15.50;9.05;;;;;18.70;100633.00;;;;12864277;22;20200;-79
2021/09/10 02:04:49;;;;;;;11.73;8.55;;;;;18.70;100636.00;;;;12862871;22;20182;-79
2021/09/10 02:09:50;;;;;;;11.35;9.07;;;;;18.70;100635.00;;;;12863993;22;20645;-79
2021/09/10 02:14:53;;;;;;;11.02;8.20;;;;;18.70;100649.00;;;;12864314;22;20249;-79
2021/09/10 02:19:55;;;;;;;12.43;7.80;;;;;18.60;100645.00;;;;12867205;23;20200;-79
2021/09/10 02:24:56;;;;;;;13.60;8.88;;;;;18.60;100639.00;;;;12866789;22;20165;-80
2021/09/10 02:29:57;;;;;;;8.63;7.75;;;;;18.50;100649.00;;;;12890774;22;20193;-79
2021/09/10 02:34:58;;;;;;;10.93;8.07;;;;;18.50;100652.00;;;;12866612;22;20256;-79
2021/09/10 02:39:59;;;;;;;12.63;8.60;;;;;18.50;100645.00;;;;12890855;22;20224;-79
2021/09/10 02:45:02;;;;;;;11.45;8.27;;;;;18.50;100639.00;;;;12890730;22;20177;-79
2021/09/10 02:50:04;;;;;;;11.50;7.80;;;;;18.50;100645.00;;;;12865388;22;20240;-79
2021/09/10 02:55:07;;;;;;;11.45;8.40;;;;;18.60;100647.00;;;;12865600;22;20267;-79
2021/09/10 03:00:09;;;;;;;14.88;9.77;;;;;18.50;100639.00;;;;12866252;22;20522;-79
2021/09/10 03:05:11;;;;;;;10.38;8.95;;;;;18.60;100641.00;;;;12891427;22;20170;-79
2021/09/10 03:10:12;;;;;;;10.00;8.40;;;;;18.50;100643.00;;;;12889975;22;20205;-79
2021/09/10 03:15:13;;;;;;;14.25;9.48;;;;;18.50;100640.00;;;;12867119;22;20177;-79
2021/09/10 03:20:15;;;;;;;11.45;8.88;;;;;18.50;100635.00;;;;12890520;22;20197;-79
2021/09/10 03:25:16;;;;;;;10.35;8.15;;;;;18.50;100637.00;;;;12890268;22;20223;-79
2021/09/10 03:30:19;;;;;;;13.10;8.57;;;;;18.50;100637.00;;;;12864975;22;20198;-79
2021/09/10 03:35:20;;;;;;;11.88;8.38;;;;;18.50;100638.00;;;;12865835;22;20174;-79
2021/09/10 03:40:21;;;;;;;11.95;9.35;;;;;18.50;100633.00;;;;12865590;22;20236;-80
2021/09/10 03:45:22;;;;;;;13.65;8.02;;;;;18.50;100646.00;;;;12842185;22;20173;-79
2021/09/10 03:50:24;;;;;;;14.80;9.35;;;;;18.50;100639.00;;;;12866111;22;20193;-79
2021/09/10 03:55:25;;;;;;;12.43;8.93;;;;;18.50;100637.00;;;;12865413;22;20173;-79
2021/09/10 04:00:26;;;;;;;10.70;9.13;;;;;18.40;100644.00;;;;12865557;22;20174;-79
2021/09/10 04:05:27;;;;;;;12.32;8.82;;;;;18.40;100652.00;;;;12890347;22;20170;-79
2021/09/10 04:10:29;;;;;;;13.43;9.80;;;;;18.20;100644.00;;;;12890431;22;20189;-79
2021/09/10 04:15:30;;;;;;;13.90;9.20;;;;;18.10;100642.00;;;;12865536;22;20641;-79
2021/09/10 04:20:34;;;;;;;14.07;8.60;;;;;18.10;100647.00;;;;12866701;22;20173;-80
2021/09/10 04:25:35;;;;;;;12.10;8.18;;;;;18.00;100644.00;;;;12890686;22;20173;-79
2021/09/10 04:30:36;;;;;;;11.20;7.93;;;;;17.90;100651.00;;;;12840583;22;20228;-79
2021/09/10 04:35:37;;;;;;;13.35;9.25;;;;;17.80;100647.00;;;;12865637;22;20169;-79
2021/09/10 04:40:38;;;;;;;12.02;9.90;;;;;17.80;100650.00;;;;12865375;23;20240;-81
2021/09/10 04:45:40;;;;;;;10.40;9.05;;;;;17.80;100648.00;;;;12843145;22;20169;-81
2021/09/10 04:50:41;;;;;;;19.48;9.50;;;;;17.90;100645.00;;;;12840962;22;20204;-80
2021/09/10 04:55:42;;;;;;;10.52;8.85;;;;;17.90;100647.00;;;;12860486;22;20197;-79
2021/09/10 05:00:44;;;;;;;14.77;10.00;;;;;18.00;100639.00;;;;12863890;22;20173;-79
2021/09/10 05:05:45;;;;;;;12.63;10.07;;;;;18.00;100653.00;;;;12863845;22;20232;-79
2021/09/10 05:10:46;;;;;;;11.95;9.48;;;;;18.10;100639.00;;;;12887374;22;20207;-80
2021/09/10 05:15:48;;;;;;;13.90;9.65;;;;;18.10;100645.00;;;;12888468;22;20189;-80
2021/09/10 05:20:49;;;;;;;11.45;9.00;;;;;18.20;100650.00;;;;12841371;22;20165;-79
2021/09/10 05:25:50;;;;;;;13.88;10.02;;;;;18.30;100656.00;;;;12864807;22;20712;-79
2021/09/10 05:30:52;;;;;;;13.50;10.65;;;;;18.40;100661.00;;;;12864583;22;20200;-79
2021/09/10 05:35:53;;;;;;;12.75;9.95;;;;;18.40;100660.00;;;;12890030;22;20176;-79
2021/09/10 05:40:54;;;;;;;11.88;9.95;;;;;18.40;100662.00;;;;12860866;22;20208;-79
2021/09/10 05:45:55;;;;;;;9.30;8.25;;;;;18.50;100674.00;;;;12863229;22;20534;-79
2021/09/10 05:50:56;;;;;;;11.82;9.52;;;;;18.50;100673.00;;;;12881331;23;20844;-78
2021/09/10 05:55:57;;;;;;;12.55;9.50;;;;;18.60;100684.00;;;;12874877;22;20178;-78
2021/09/10 06:00:59;;;;;;;12.00;9.63;;;;;18.70;100686.00;;;;12865426;22;20200;-78
2021/09/10 06:06:01;;;;;;;11.27;8.98;;;;;18.90;100684.00;;;;12893227;22;20174;-79
2021/09/10 06:11:04;;;;;;;10.52;9.38;;;;;19.00;100698.00;;;;12884973;22;20538;-79
2021/09/10 06:16:05;;;;;;;11.60;9.18;;;;;19.10;100707.00;;;;12913804;22;20244;-79
2021/09/10 06:21:06;;;;;;;14.18;10.75;;;;;19.20;100717.00;;;;12866693;22;20173;-79
2021/09/10 06:26:07;;;;;;;13.15;10.60;;;;;19.30;100731.00;;;;12840824;22;20609;-79
2021/09/10 06:31:09;;;;;;;11.82;10.15;;;;;19.50;100728.00;;;;12891479;22;20197;-79
2021/09/10 06:36:10;;;;;;;10.70;9.60;;;;;19.70;100738.00;;;;12842050;22;20193;-79
2021/09/10 06:41:11;;;;;;;12.15;10.50;;;;;19.90;100737.00;;;;12864097;22;20268;-79
2021/09/10 06:46:12;;;;;;;12.90;10.50;;;;;20.00;100751.00;;;;12864652;22;20182;-79
2021/09/10 06:51:15;;;;;;;11.38;8.40;;;;;20.10;100746.00;;;;12848296;22;20196;-78
2021/09/10 06:56:16;;;;;;;12.10;9.43;;;;;20.30;100753.00;;;;12886680;22;20184;-79
2021/09/10 07:01:18;;;;;;;9.23;8.23;;;;;20.40;100743.00;;;;12861776;22;20185;-79
2021/09/10 07:06:20;;;;;;;11.80;8.85;;;;;20.60;100754.00;;;;12860174;22;20177;-79
2021/09/10 07:11:21;;;;;;;12.80;9.60;;;;;20.90;100759.00;;;;12886453;22;20196;-79
2021/09/10 07:16:23;;;;;;;14.05;9.32;;;;;21.20;100766.00;;;;12887601;22;20190;-79
2021/09/10 07:21:25;;;;;;;12.73;8.85;;;;;21.40;100768.00;;;;12838100;22;20173;-79
2021/09/10 07:26:29;;;;;;;11.80;7.47;;;;;21.60;100780.00;;;;12887630;22;20636;-79
2021/09/10 07:31:30;;;;;;;10.90;7.78;;;;;21.70;100790.00;;;;12837241;22;20197;-79
2021/09/10 07:36:31;;;;;;;9.85;7.47;;;;;21.80;100788.00;;;;12862283;22;20502;-79
2021/09/10 07:41:33;;;;;;;11.23;7.15;;;;;22.10;100794.00;;;;12839393;22;20178;-79
2021/09/10 07:46:34;;;;;;;12.75;8.15;;;;;22.50;100797.00;;;;12862416;22;20256;-79
2021/09/10 07:51:36;;;;;;;13.10;7.93;;;;;22.80;100799.00;;;;12913799;22;20629;-79
2021/09/10 07:56:38;;;;;;;10.27;7.68;;;;;23.00;100800.00;;;;12886631;22;20576;-78
2021/09/10 08:01:39;;;;;;;11.38;7.63;;;;;22.90;100797.00;;;;12862248;22;20676;-78
2021/09/10 08:06:41;;;;;;;10.85;7.70;;;;;22.80;100806.00;;;;12863000;22;20232;-79
2021/09/10 08:11:42;;;;;;;12.15;7.32;;;;;22.80;100798.00;;;;12925445;22;20185;-78
2021/09/10 08:23:01;;;;;;;10.45;7.20;;;;;23.20;100812.00;;;;12865554;22;20200;-80
2021/09/10 08:28:02;;;;;;;9.85;6.75;;;;;23.10;100807.00;;;;12962886;22;20220;-81
2021/09/10 08:33:10;;;;;;;12.93;6.75;;;;;22.80;100805.00;;;;12937240;22;20175;-80
2021/09/10 08:38:12;;;;;;;13.95;8.00;;;;;22.80;100807.00;;;;12963990;22;20220;-80
2021/09/10 08:43:14;;;;;;;12.07;8.05;;;;;23.00;100809.00;;;;12959684;22;20192;-81
2021/09/10 08:48:17;;;;;;;11.10;7.85;;;;;23.20;100814.00;;;;12982910;22;20192;-81
2021/09/10 08:53:18;;;;;;;9.82;7.43;;;;;23.10;100828.00;;;;12939382;22;20173;-80
2021/09/10 08:58:19;;;;;;;12.10;8.27;;;;;23.40;100812.00;;;;12962136;22;20483;-80
2021/09/10 09:03:20;;;;;;;14.88;8.63;;;;;23.90;100815.00;;;;12912872;22;20173;-81
2021/09/10 09:08:22;;;;;;;10.88;8.70;;;;;24.20;100824.00;;;;12937691;22;20204;-80
2021/09/10 09:13:27;;;;;;;12.30;9.80;;;;;24.30;100826.00;;;;12939029;22;20173;-80
2021/09/10 09:18:42;;;;;;;12.82;9.77;;;;;24.10;100819.00;;;;12933370;22;20177;-80
2021/09/10 09:23:43;;;;;;;11.68;9.02;;;;;23.70;100819.00;;;;12887334;22;20706;-80
2021/09/10 09:28:46;;;;;;;14.60;9.93;;;;;23.10;100820.00;;;;12897730;22;20758;-79
2021/09/10 09:33:47;;;;;;;14.68;10.88;;;;;22.40;100812.00;;;;12899323;22;20249;-80
2021/09/10 09:38:49;;;;;;;17.98;12.40;;;;;21.90;100795.00;;;;12884065;22;20601;-82
2021/09/10 09:43:51;;;;;;;17.27;12.93;;;;;21.40;100786.00;;;;12860363;22;20177;-82
2021/09/10 09:48:53;;;;;;;18.88;15.35;;;;;21.10;100787.00;;;;12879871;22;20951;-82
2021/09/10 09:53:54;;;;;;;22.40;16.77;;;;;20.90;100777.00;;;;12882245;22;20153;-82
2021/09/10 09:58:55;;;;;;;24.58;18.52;;;;;20.80;100791.00;;;;12853789;22;20173;-81
2021/09/10 10:03:56;;;;;;;28.45;20.95;;;;;20.70;100799.00;;;;12896879;22;20177;-81
2021/09/10 10:09:11;;;;;;;29.20;19.83;;;;;20.70;100798.00;;;;12892247;22;20418;-79
2021/09/10 10:14:14;;;;;;;27.25;21.75;;;;;20.70;100815.00;;;;12838607;22;20170;-80
2021/09/10 10:19:21;;;;;;;27.13;21.65;;;;;20.60;100811.00;;;;12861735;22;20173;-80
2021/09/10 10:24:42;;;;;;;29.60;21.58;;;;;20.50;100828.00;;;;12886108;22;20619;-80
2021/09/10 10:29:44;;;;;;;24.27;18.58;;;;;20.40;100816.00;;;;12862987;22;20193;-80
2021/09/10 10:35:12;;;;;;;24.67;18.58;;;;;20.40;100823.00;;;;12886721;22;20173;-80
2021/09/10 10:40:44;;;;;;;23.83;16.40;;;;;20.40;100839.00;;;;12865914;22;20196;-79
2021/09/10 10:45:45;;;;;;;24.52;18.88;;;;;20.50;100837.00;;;;12879882;22;20268;-78
2021/09/10 10:50:46;;;;;;;29.20;18.52;;;;;20.50;100832.00;;;;12904876;22;20196;-79
2021/09/10 10:55:47;;;;;;;20.83;15.18;;;;;20.60;100833.00;;;;12887747;22;20172;-79
2021/09/10 11:01:00;;;;;;;22.27;14.55;;;;;20.70;100843.00;;;;12861367;22;20252;-79
2021/09/10 11:06:27;;;;;;;20.10;15.20;;;;;20.90;100834.00;;;;12863441;22;20525;-79
2021/09/10 11:11:28;;;;;;;21.85;13.82;;;;;20.90;100834.00;;;;12909035;22;20194;-79
2021/09/10 11:16:30;;;;;;;14.52;10.63;;;;;20.80;100832.00;;;;12934036;22;20196;-79
2021/09/10 11:21:32;;;;;;;15.52;10.80;;;;;20.80;100835.00;;;;12837596;22;20317;-78
2021/09/10 11:26:34;;;;;;;14.00;11.30;;;;;20.90;100831.00;;;;12861287;22;20196;-79
2021/09/10 11:31:36;;;;;;;12.68;10.10;;;;;21.00;100830.00;;;;12861920;22;20249;-80
2021/09/10 11:36:37;;;;;;;11.82;8.90;;;;;21.20;100827.00;;;;12839138;22;20242;-80
2021/09/10 11:41:40;;;;;;;10.20;8.18;;;;;21.90;100825.00;;;;12887732;22;20259;-81
2021/09/10 11:46:41;;;;;;;10.00;6.63;;;;;22.40;100835.00;;;;12861774;22;20180;-81
2021/09/10 11:51:48;;;;;;;8.38;7.32;;;;;22.90;100844.00;;;;12859716;22;20208;-81
2021/09/10 11:56:50;;;;;;;8.80;6.30;;;;;22.90;100847.00;;;;12862273;22;20825;-81
2021/09/10 12:01:52;;;;;;;7.32;6.57;;;;;22.90;100834.00;;;;12887267;22;20177;-81
2021/09/10 12:06:57;;;;;;;8.15;7.00;;;;;23.60;100844.00;;;;12913039;22;20638;-80
2021/09/10 12:12:12;;;;;;;9.65;8.65;;;;;24.90;100850.00;;;;12861272;23;20181;-80
2021/09/10 12:17:38;;;;;;;9.65;8.55;;;;;25.70;100860.00;;;;12887393;22;20169;-80
2021/09/10 12:22:49;;;;;;;9.32;7.90;;;;;27.50;100867.00;;;;12911659;22;20460;-81
2021/09/10 12:28:07;;;;;;;8.05;6.97;;;;;28.20;100863.00;;;;12863307;22;20493;-81
2021/09/10 12:33:11;;;;;;;6.72;6.13;;;;;27.00;100858.00;;;;12862644;22;20165;-82
2021/09/10 12:38:16;;;;;;;7.70;6.25;;;;;26.20;100852.00;;;;12863423;22;20256;-81
2021/09/10 12:43:21;;;;;;;5.95;5.45;;;;;26.50;100834.00;;;;12863631;22;20608;-82
2021/09/10 12:48:24;;;;;;;8.35;5.72;;;;;26.90;100843.00;;;;12864020;22;20314;-82
2021/09/10 12:53:25;;;;;;;6.80;5.35;;;;;26.30;100839.00;;;;12863408;22;20177;-82
2021/09/10 12:58:26;;;;;;;6.60;5.70;;;;;26.20;100826.00;;;;12859930;22;20181;-82
2021/09/10 13:03:29;;;;;;;8.45;5.20;;;;;26.40;100833.00;;;;12837218;22;20178;-83
2021/09/10 13:08:30;;;;;;;7.03;5.82;;;;;26.30;100818.00;;;;12861447;22;20640;-81
2021/09/10 13:13:33;;;;;;;6.20;5.30;;;;;26.50;100802.00;;;;12887749;22;20169;-81
2021/09/10 13:18:34;;;;;;;7.50;6.72;;;;;27.40;100793.00;;;;12839268;22;20591;-81
2021/09/10 13:23:37;;;;;;;6.32;5.63;;;;;28.50;100797.00;;;;12864385;22;20197;-81
2021/09/10 13:28:42;;;;;;;8.18;5.57;;;;;28.70;100794.00;;;;12887585;22;20256;-81
2021/09/10 13:33:44;;;;;;;6.63;5.57;;;;;27.90;100796.00;;;;12861797;22;20296;-81
2021/09/10 13:38:45;;;;;;;5.18;4.70;;;;;27.10;100790.00;;;;12839006;22;20177;-82
2021/09/10 13:43:46;;;;;;;5.80;5.10;;;;;26.60;100797.00;;;;12841096;22;20165;-82
2021/09/10 13:48:48;;;;;;;5.90;5.30;;;;;27.30;100791.00;;;;12839249;22;20196;-82
2021/09/10 13:53:51;;;;;;;5.53;4.15;;;;;27.40;100796.00;;;;12842288;22;20174;-82
2021/09/10 13:58:54;;;;;;;4.97;3.42;;;;;26.70;100793.00;;;;12840765;22;20173;-82
2021/09/10 14:03:55;;;;;;;7.80;4.45;;;;;26.20;100786.00;;;;12867309;22;20560;-81
2021/09/10 14:08:58;;;;;;;5.97;4.85;;;;;25.50;100784.00;;;;12889887;22;20205;-82
2021/09/10 14:14:00;;;;;;;4.72;4.32;;;;;24.70;100783.00;;;;12842871;22;20849;-82
2021/09/10 14:19:04;;;;;;;4.65;4.25;;;;;24.30;100794.00;;;;12870466;22;20482;-82
2021/09/10 14:24:05;;;;;;;6.28;4.82;;;;;24.10;100790.00;;;;12890594;22;20576;-81
2021/09/10 14:29:07;;;;;;;6.80;5.05;;;;;23.80;100782.00;;;;12867217;22;20190;-81
2021/09/10 14:34:11;;;;;;;11.68;5.88;;;;;23.70;100784.00;;;;12842912;22;20248;-81
2021/09/10 14:39:14;;;;;;;6.65;5.82;;;;;23.60;100787.00;;;;12892031;22;20648;-82
2021/09/10 14:44:15;;;;;;;5.95;5.35;;;;;23.50;100778.00;;;;12867172;22;20182;-82
2021/09/10 14:49:16;;;;;;;5.22;3.47;;;;;23.40;100781.00;;;;12866805;22;20193;-82
2021/09/10 14:54:17;;;;;;;4.95;2.70;;;;;23.80;100786.00;;;;12869199;22;20201;-81
2021/09/10 15:04:34;;;;;;;1.80;1.50;;;;;24.60;100797.00;;;;12865922;22;20180;-81
2021/09/10 15:09:41;;;;;;;2.05;1.55;;;;;25.10;100793.00;;;;12868834;22;20244;-81
2021/09/10 15:14:42;;;;;;;3.45;1.75;;;;;24.70;100800.00;;;;12895043;22;20185;-81
2021/09/10 15:19:44;;;;;;;3.40;2.03;;;;;24.40;100798.00;;;;12865202;22;20189;-80
2021/09/10 15:24:45;;;;;;;2.22;2.03;;;;;23.80;100795.00;;;;12890493;22;20238;-81
2021/09/10 15:29:46;;;;;;;2.40;1.90;;;;;23.50;100795.00;;;;12842362;22;20197;-84
2021/09/10 15:34:48;;;;;;;2.50;1.60;;;;;23.20;100797.00;;;;12842144;22;20174;-84
2021/09/10 15:39:49;;;;;;;2.17;1.98;;;;;22.90;100787.00;;;;12888659;22;20186;-81
2021/09/10 15:44:51;;;;;;;2.78;2.35;;;;;22.70;100790.00;;;;12836881;22;20169;-81
2021/09/10 15:49:52;;;;;;;3.45;2.10;;;;;22.70;100785.00;;;;12839502;22;20197;-81
2021/09/10 15:54:53;;;;;;;3.88;2.10;;;;;22.60;100773.00;;;;12861970;22;20632;-81
2021/09/10 15:59:54;;;;;;;5.65;2.72;;;;;22.40;100772.00;;;;12887463;22;20250;-81
2021/09/10 16:04:55;;;;;;;3.10;2.80;;;;;22.40;100780.00;;;;12862904;22;20177;-82
2021/09/10 16:09:57;;;;;;;4.00;3.30;;;;;22.50;100783.00;;;;12886562;23;20205;-81
2021/09/10 16:14:59;;;;;;;8.57;4.78;;;;;22.90;100780.00;;;;12867469;22;20553;-83
2021/09/10 16:20:00;;;;;;;9.05;6.30;;;;;23.30;100768.00;;;;12865420;22;20184;-80
2021/09/10 16:25:06;;;;;;;7.80;5.53;;;;;23.20;100767.00;;;;12861578;22;20178;-82
2021/09/10 16:30:09;;;;;;;8.90;6.32;;;;;22.80;100757.00;;;;12861050;22;20281;-81
2021/09/10 16:35:11;;;;;;;7.85;6.18;;;;;22.60;100749.00;;;;12867225;22;20779;-80
2021/09/10 16:40:13;;;;;;;8.10;6.85;;;;;22.50;100746.00;;;;12836938;22;20174;-80
2021/09/10 16:45:14;;;;;;;9.25;7.85;;;;;22.40;100743.00;;;;12885201;22;20260;-81
2021/09/10 16:50:15;;;;;;;10.48;7.18;;;;;22.00;100750.00;;;;12888392;22;20201;-81
2021/09/10 16:55:16;;;;;;;9.45;6.93;;;;;21.80;100739.00;;;;12840588;22;20174;-82
2021/09/10 17:00:17;;;;;;;11.15;8.30;;;;;21.70;100736.00;;;;12863967;22;20173;-81
2021/09/10 17:05:19;;;;;;;9.65;7.13;;;;;21.60;100745.00;;;;12887701;22;20201;-82
2021/09/10 17:10:20;;;;;;;10.93;7.85;;;;;21.50;100755.00;;;;12864753;22;20279;-83
2021/09/10 17:15:21;;;;;;;8.95;8.05;;;;;21.30;100759.00;;;;12889542;22;20609;-83
2021/09/10 17:20:22;;;;;;;10.30;8.27;;;;;21.20;100757.00;;;;12863547;22;20193;-83
2021/09/10 17:25:28;;;;;;;9.70;7.93;;;;;21.10;100768.00;;;;12863365;22;20173;-84
2021/09/10 17:30:30;;;;;;;6.95;6.20;;;;;21.00;100762.00;;;;12864061;23;20212;-84
2021/09/10 17:35:41;;;;;;;9.00;7.03;;;;;20.90;100783.00;;;;12865238;22;20170;-83
2021/09/10 17:40:43;;;;;;;9.90;7.22;;;;;20.90;100787.00;;;;12864564;22;20173;-84
2021/09/10 17:45:44;;;;;;;8.50;6.85;;;;;21.10;100799.00;;;;12869738;22;20181;-83
2021/09/10 17:50:50;;;;;;;8.73;6.95;;;;;21.00;100809.00;;;;12847723;22;20347;-83
2021/09/10 17:55:54;;;;;;;9.23;5.75;;;;;20.80;100810.00;;;;12870851;22;20170;-82
2021/09/10 18:00:55;;;;;;;8.07;5.90;;;;;20.60;100815.00;;;;12896232;22;20227;-83
2021/09/10 18:05:57;;;;;;;8.18;6.72;;;;;20.50;100820.00;;;;12899378;22;20181;-83
2021/09/10 18:10:58;;;;;;;7.18;6.43;;;;;20.30;100830.00;;;;12850762;22;20216;-83
2021/09/10 18:15:59;;;;;;;7.57;6.18;;;;;20.10;100823.00;;;;12873579;22;20173;-82
2021/09/10 18:21:01;;;;;;;9.40;6.78;;;;;20.00;100843.00;;;;12897289;22;20469;-82
2021/09/10 18:26:03;;;;;;;11.02;8.23;;;;;19.90;100855.00;;;;12872223;22;20188;-84
2021/09/10 18:31:04;;;;;;;10.45;6.88;;;;;19.80;100853.00;;;;12921141;22;20644;-83
2021/09/10 18:36:07;;;;;;;6.93;6.20;;;;;19.70;100861.00;;;;12898921;22;20476;-84
2021/09/10 18:41:11;;;;;;;6.88;5.68;;;;;19.60;100869.00;;;;12897376;22;20176;-84
2021/09/10 18:46:12;;;;;;;8.43;6.60;;;;;19.50;100874.00;;;;12896556;23;20260;-84
2021/09/10 18:51:13;;;;;;;7.80;6.30;;;;;19.40;100872.00;;;;12870097;22;20255;-84
2021/09/10 18:56:15;;;;;;;8.13;6.72;;;;;19.30;100876.00;;;;12870053;22;20506;-84
2021/09/10 19:01:16;;;;;;;7.55;6.20;;;;;19.20;100874.00;;;;12839454;22;20188;-83
2021/09/10 19:06:19;;;;;;;5.45;4.95;;;;;19.10;100879.00;;;;12890269;22;20173;-84
2021/09/10 19:11:20;;;;;;;4.65;3.83;;;;;19.10;100883.00;;;;12866684;22;20201;-83
2021/09/10 19:16:22;;;;;;;5.47;3.83;;;;;19.00;100886.00;;;;12891227;22;20197;-83
2021/09/10 19:21:23;;;;;;;5.20;3.70;;;;;19.00;100895.00;;;;12866197;22;20865;-83
2021/09/10 19:26:25;;;;;;;5.55;4.50;;;;;19.10;100899.00;;;;12841638;22;20174;-84
2021/09/10 19:31:27;;;;;;;7.00;4.20;;;;;19.10;100908.00;;;;12890075;22;20204;-84
2021/09/10 19:36:28;;;;;;;6.22;4.50;;;;;19.10;100927.00;;;;12840979;22;20177;-83
2021/09/10 19:41:29;;;;;;;9.05;5.07;;;;;19.00;100936.00;;;;12865209;22;20170;-79
2021/09/10 19:46:30;;;;;;;9.43;6.82;;;;;18.80;100943.00;;;;12836330;22;20236;-78
2021/09/10 19:51:32;;;;;;;12.18;8.52;;;;;18.80;100938.00;;;;12930182;22;20264;-77
2021/09/10 19:56:33;;;;;;;11.15;8.57;;;;;18.80;100933.00;;;;12859340;22;20823;-79
2021/09/10 20:01:34;;;;;;;15.60;10.13;;;;;18.70;100929.00;;;;12859669;22;20175;-80
2021/09/10 20:06:36;;;;;;;13.00;8.90;;;;;18.70;100942.00;;;;12886931;22;20181;-79
2021/09/10 20:11:37;;;;;;;14.38;10.60;;;;;18.60;100944.00;;;;12931517;22;20244;-79
2021/09/10 20:16:39;;;;;;;15.85;10.75;;;;;18.50;100961.00;;;;12860385;22;20176;-79
2021/09/10 20:21:40;;;;;;;10.95;9.73;;;;;18.40;100962.00;;;;12884710;22;20498;-79
2021/09/10 20:26:41;;;;;;;12.02;8.00;;;;;18.30;100967.00;;;;12884122;22;20173;-80
2021/09/10 20:31:42;;;;;;;7.90;7.07;;;;;18.20;100965.00;;;;12860999;22;20197;-79
2021/09/10 20:36:43;;;;;;;9.48;7.57;;;;;18.10;100972.00;;;;12862455;22;20655;-80
2021/09/10 20:41:45;;;;;;;8.68;6.72;;;;;18.00;100968.00;;;;12887279;22;20177;-81
2021/09/10 20:46:46;;;;;;;11.35;7.07;;;;;17.90;100984.00;;;;12863719;22;20196;-80
2021/09/10 20:51:49;;;;;;;7.78;6.32;;;;;17.80;100989.00;;;;12886693;22;20202;-82
2021/09/10 20:56:51;;;;;;;9.43;7.38;;;;;17.70;100992.00;;;;12863857;22;20233;-81
2021/09/10 21:01:52;;;;;;;13.13;8.25;;;;;17.60;100984.00;;;;12887371;22;20174;-80
2021/09/10 21:06:53;;;;;;;16.40;9.05;;;;;17.60;100986.00;;;;12889164;22;20200;-79
2021/09/10 21:11:55;;;;;;;13.25;9.85;;;;;17.50;100990.00;;;;12889081;22;20220;-80
2021/09/10 21:16:56;;;;;;;11.35;9.02;;;;;17.50;100994.00;;;;12886822;22;20188;-80
2021/09/10 21:21:57;;;;;;;16.05;9.40;;;;;17.60;100997.00;;;;12861582;22;20216;-80
2021/09/10 21:26:58;;;;;;;12.23;9.52;;;;;17.70;100992.00;;;;12864026;22;20169;-81
2021/09/10 21:32:00;;;;;;;13.30;9.05;;;;;17.70;101008.00;;;;12908809;22;20185;-81
2021/09/10 21:37:02;;;;;;;12.15;9.38;;;;;17.70;101010.00;;;;12887071;22;20166;-80
2021/09/10 21:42:04;;;;;;;11.55;8.25;;;;;17.70;101015.00;;;;12861997;22;20169;-80
2021/09/10 21:47:05;;;;;;;9.98;7.32;;;;;17.50;101016.00;;;;12887092;22;20169;-80
2021/09/10 21:52:07;;;;;;;11.82;8.23;;;;;17.50;101017.00;;;;12887041;22;20201;-80
2021/09/10 21:57:08;;;;;;;10.85;7.25;;;;;17.30;101024.00;;;;12836407;22;20173;-80
2021/09/10 22:02:09;;;;;;;9.20;7.00;;;;;17.20;101029.00;;;;12884993;22;20187;-80
2021/09/10 22:07:11;;;;;;;9.73;7.07;;;;;17.10;101026.00;;;;12885555;22;20177;-80
2021/09/10 22:12:12;;;;;;;11.38;7.38;;;;;17.10;101030.00;;;;12860211;22;20202;-79
2021/09/10 22:17:13;;;;;;;13.40;7.18;;;;;17.00;101038.00;;;;12884534;22;21052;-79
2021/09/10 22:22:15;;;;;;;10.90;7.10;;;;;16.90;101040.00;;;;12859956;22;20193;-80
2021/09/10 22:27:16;;;;;;;9.98;6.65;;;;;16.80;101042.00;;;;12859481;22;20202;-79
2021/09/10 22:32:17;;;;;;;9.35;5.82;;;;;16.70;101049.00;;;;12863090;22;20193;-80
2021/09/10 22:37:19;;;;;;;10.07;6.35;;;;;16.60;101047.00;;;;12864516;22;20181;-80
2021/09/10 22:42:20;;;;;;;14.70;6.43;;;;;16.60;101052.00;;;;12934407;22;20173;-80
2021/09/10 22:47:22;;;;;;;6.90;6.20;;;;;16.50;101071.00;;;;12909043;22;20169;-80
2021/09/10 22:52:23;;;;;;;11.85;7.30;;;;;16.50;101072.00;;;;12863485;22;20200;-80
2021/09/10 22:57:24;;;;;;;9.53;7.80;;;;;16.50;101080.00;;;;12886646;22;20169;-80
2021/09/10 23:02:25;;;;;;;13.30;8.95;;;;;16.60;101089.00;;;;12838370;22;20201;-80
2021/09/10 23:07:27;;;;;;;13.63;9.63;;;;;16.70;101090.00;;;;12862747;22;20184;-81
2021/09/10 23:12:28;;;;;;;15.40;9.48;;;;;16.80;101091.00;;;;12862460;22;20200;-81
2021/09/10 23:17:29;;;;;;;19.50;9.52;;;;;16.70;101092.00;;;;12933242;22;20177;-80
2021/09/10 23:22:31;;;;;;;11.45;8.35;;;;;16.60;101091.00;;;;12837538;22;20215;-80
2021/09/10 23:27:32;;;;;;;11.45;8.25;;;;;16.50;101096.00;;;;12884519;22;20172;-79
2021/09/10 23:32:53;;;;;;;12.65;9.20;;;;;16.30;101095.00;;;;12849044;22;20204;-79
2021/09/10 23:37:54;;;;;;;14.37;8.93;;;;;16.30;101104.00;;;;12889983;22;20177;-80
2021/09/10 23:42:55;;;;;;;14.43;9.25;;;;;16.20;101101.00;;;;12865576;22;20173;-80
2021/09/10 23:47:56;;;;;;;12.40;9.23;;;;;16.20;101110.00;;;;12910572;22;20170;-80
2021/09/10 23:52:58;;;;;;;14.13;9.37;;;;;16.10;101111.00;;;;12865147;22;20224;-80
2021/09/10 23:57:59;;;;;;;14.00;9.23;;;;;16.10;101112.00;;;;12936506;22;20169;-80
